Latest Weather Observations for White Cliffs AWS

IDN60801

Issued at 9:32 am EST Thursday 28 May 2015 (issued every 30 minutes, with the page automatically refreshed every 10 minutes)

About weather observations | Map of weather stations | Latest weather observations for NSW | Other Formats
Station Details ID: 046129 Name: WHITE CLIFFS AWS Lat: -30.85 Lon: 143.07 Height: 158.0 m
Data from the previous 72 hours. | See also: Recent months at White Cliffs AWS
Date/Time
EST
Temp
°C
App
Temp
°C
Dew
Point
Rel
Hum
%
Delta-T
°C
Wind Press
QNH
hPa
Press
MSL
hPa
Rain
since 9 am
mm
Dir
 
Spd
km/h
Gust
km/h
Spd
kts
Gust
kts
28/09:30am 18.2 17.7 13.7 75 2.6 ENE 9 13 5 7 1021.2 1021.1 0.0
28/09:00am 16.8 16.3 13.9 83 1.7 E 9 13 5 7 1020.9 1020.7 0.2
28/08:30am 15.5 14.9 13.5 88 1.1 ESE 9 11 5 6 1020.9 1020.7 0.2
28/08:00am 14.7 14.4 13.2 91 0.8 ESE 7 9 4 5 1021.0 1020.8 0.2
28/07:30am 14.4 14.2 13.1 92 0.7 NE 6 7 3 4 1020.9 1020.7 0.2
28/07:00am 14.3 15.2 12.9 91 0.8 CALM 0 6 0 3 1020.7 1020.5 0.2
28/06:30am 14.4 14.8 12.6 89 1.0 SSW 2 6 1 3 1020.6 1020.4 0.2
28/06:00am 14.6 15.5 12.8 89 1.0 CALM 0 0 0 0 1020.3 1020.1 0.2
28/05:30am 14.5 15.3 12.5 88 1.1 CALM 0 0 0 0 1020.1 1019.9 0.2
28/05:00am 14.6 14.3 12.6 88 1.1 SSW 6 7 3 4 1019.9 1019.7 0.2
28/04:30am 14.5 14.1 12.4 87 1.2 ESE 6 7 3 4 1019.9 1019.7 0.2
28/04:00am 14.4 13.8 12.4 88 1.1 E 7 9 4 5 1019.9 1019.7 0.2
28/03:30am 14.3 13.3 12.2 87 1.1 E 9 11 5 6 1019.7 1019.5 0.2
28/03:00am 14.3 13.2 12.0 86 1.2 E 9 11 5 6 1020.0 1019.8 0.2
28/02:30am 14.1 13.0 11.8 86 1.2 E 9 11 5 6 1020.2 1020.0 0.2
28/02:00am 14.4 12.5 11.7 84 1.5 E 13 15 7 8 1020.2 1020.0 0.2
28/01:30am 14.7 13.5 11.7 82 1.6 E 9 11 5 6 1020.5 1020.3 0.2
28/01:00am 14.2 13.0 11.5 84 1.4 ENE 9 11 5 6 1020.6 1020.4 0.0
28/12:30am 14.7 13.5 11.7 82 1.6 ENE 9 13 5 7 1020.8 1020.6 0.0
28/12:00am 14.9 14.3 12.2 84 1.5 ENE 7 7 4 4 1021.1 1021.0 0.0
 
Date/Time
EST
Temp
°C
App
Temp
°C
Dew
Point
Rel
Hum
%
Delta-T
°C
Wind Press
QNH
hPa
Press
MSL
hPa
Rain
since 9 am
mm
Dir
 
Spd
km/h
Gust
km/h
Spd
kts
Gust
kts
27/11:30pm 14.6 14.1 12.8 89 1.0 E 7 9 4 5 1021.0 1020.8 0.0
27/11:00pm 14.7 13.8 12.7 88 1.1 E 9 11 5 6 1020.9 1020.7 0.0
27/10:30pm 15.4 13.8 12.9 85 1.4 E 13 17 7 9 1021.1 1021.0 0.0
27/10:00pm 16.0 14.4 12.9 82 1.7 ESE 13 15 7 8 1021.7 1021.6 0.0
27/09:30pm 16.9 15.8 13.2 79 2.1 E 11 13 6 7 1021.6 1021.5 0.0
27/09:00pm 16.8 16.8 13.7 82 1.8 E 6 9 3 5 1021.9 1021.8 0.0
27/08:30pm 16.7 15.9 13.0 79 2.1 NE 9 11 5 6 1021.8 1021.7 0.0
27/08:00pm 17.1 18.1 13.2 78 2.2 CALM 0 0 0 0 1021.6 1021.5 0.0
27/07:30pm 18.0 18.0 12.5 70 3.1 NE 4 7 2 4 1021.5 1021.4 0.0
27/07:00pm 18.3 17.4 12.5 69 3.2 NE 9 11 5 6 1021.0 1020.8 0.0
27/06:30pm 18.4 18.0 13.0 71 3.0 ENE 7 9 4 5 1020.8 1020.6 0.0
27/06:00pm 19.0 18.5 12.0 64 3.9 ENE 6 7 3 4 1020.5 1020.3 0.0
27/05:30pm 19.3 18.2 11.8 62 4.2 NE 9 11 5 6 1020.0 1019.8 0.0
27/05:00pm 20.0 19.2 11.7 59 4.6 NNE 7 9 4 5 1020.2 1020.0 0.0
27/04:30pm 20.4 19.1 11.1 55 5.1 NE 9 11 5 6 1020.2 1020.0 0.0
27/04:00pm 20.8 19.5 11.4 55 5.2 NNE 9 13 5 7 1020.3 1020.1 0.0
27/03:30pm 20.9 19.5 11.0 53 5.5 NNE 9 13 5 7 1020.3 1020.1 0.0
27/03:00pm 20.8 19.9 11.4 55 5.2 NNE 7 9 4 5 1020.4 1020.2 0.0
27/02:30pm 20.7 19.6 12.1 58 4.8 NE 9 13 5 7 1020.7 1020.5 0.0
27/02:00pm 20.6 19.9 12.1 58 4.8 ENE 7 11 4 6 1020.9 1020.7 0.0
27/01:30pm 20.6 19.9 12.1 58 4.8 NE 7 9 4 5 1021.3 1021.2 0.0
27/01:00pm 20.4 19.7 11.9 58 4.8 NE 7 11 4 6 1021.8 1021.7 0.0
27/12:30pm 20.6 21.2 11.8 57 4.9 CALM 0 0 0 0 1022.2 1022.1 0.0
27/12:00pm 20.4 19.9 11.9 58 4.7 SSE 6 9 3 5 1022.7 1022.6 0.0
27/11:30am 20.2 18.9 12.4 61 4.4 S 11 15 6 8 1023.0 1022.9 0.0
27/11:00am 19.1 17.9 13.9 72 3.0 SSW 13 17 7 9 1023.4 1023.2 0.0
27/10:30am 18.2 16.9 14.7 80 2.0 SSW 15 19 8 10 1023.7 1023.5 0.0
27/10:00am 17.1 16.2 14.9 87 1.3 SSW 13 17 7 9 1023.9 1023.7 0.0
27/09:30am 16.2 14.5 14.6 90 0.9 SSW 17 20 9 11 1024.0 1023.8 0.0
27/09:00am 15.9 14.3 13.9 88 1.1 SW 15 19 8 10 1024.0 1023.8 1.0
27/08:30am 15.9 13.2 12.8 82 1.7 SW 19 20 10 11 1023.9 1023.7 1.0
27/08:00am 16.3 14.3 12.7 79 2.0 WSW 15 19 8 10 1023.6 1023.4 1.0
27/07:30am 15.6 12.7 12.4 81 1.8 WSW 19 22 10 12 1023.3 1023.1 0.8
27/07:00am 14.9 13.5 12.2 84 1.5 NW 11 11 6 6 1022.8 1022.7 0.8
27/06:30am 15.9 14.1 10.9 72 2.7 NNW 11 15 6 8 1022.4 1022.3 0.0
27/06:00am 16.1 14.8 11.1 72 2.7 NNW 9 11 5 6 1022.1 1022.0 0.0
27/05:30am 16.4 16.3 9.6 64 3.6 CALM 0 0 0 0 1021.8 1021.7 0.0
27/05:00am 15.9 15.9 9.8 67 3.2 CALM 0 0 0 0 1021.7 1021.6 0.0
27/04:30am 16.4 16.3 9.3 63 3.7 CALM 0 0 0 0 1021.8 1021.7 0.0
27/04:00am 16.6 16.5 9.3 62 3.8 CALM 0 0 0 0 1022.0 1021.9 0.0
27/03:30am 17.0 15.5 8.4 57 4.4 NE 6 7 3 4 1022.1 1022.0 0.0
27/03:00am 17.4 15.4 8.5 56 4.6 NE 9 13 5 7 1022.2 1022.1 0.0
27/02:30am 17.7 14.8 8.3 54 4.9 NE 13 15 7 8 1022.3 1022.2 0.0
27/02:00am 17.8 15.0 8.4 54 4.8 NNE 13 17 7 9 1022.5 1022.4 0.0
27/01:30am 17.6 15.3 9.0 57 4.5 NNE 11 13 6 7 1022.7 1022.6 0.0
27/01:00am 17.6 15.3 9.0 57 4.5 NNE 11 13 6 7 1022.8 1022.7 0.0
27/12:30am 18.0 16.1 9.1 56 4.7 NE 9 11 5 6 1023.3 1023.1 0.0
27/12:00am 17.5 15.9 10.1 62 3.9 ENE 9 13 5 7 1023.4 1023.2 0.0
 
Date/Time
EST
Temp
°C
App
Temp
°C
Dew
Point
Rel
Hum
%
Delta-T
°C
Wind Press
QNH
hPa
Press
MSL
hPa
Rain
since 9 am
mm
Dir
 
Spd
km/h
Gust
km/h
Spd
kts
Gust
kts
26/11:30pm 17.1 15.7 10.9 67 3.4 ENE 9 11 5 6 1023.5 1023.3 0.0
26/11:00pm 17.5 16.7 10.9 65 3.6 ENE 6 7 3 4 1023.8 1023.6 0.0
26/10:30pm 17.5 16.5 11.1 66 3.5 ENE 7 9 4 5 1024.1 1023.9 0.0
26/10:00pm 18.4 16.5 10.5 60 4.3 SE 11 11 6 6 1023.9 1023.7 0.0
26/09:30pm 18.3 17.5 11.6 65 3.7 SW 7 9 4 5 1024.1 1023.9 0.0
26/09:00pm 18.6 19.3 12.1 66 3.6 CALM 0 0 0 0 1024.2 1024.0 0.0
26/08:30pm 18.7 19.0 11.0 61 4.2 CALM 0 0 0 0 1024.2 1024.0 0.0
26/08:00pm 18.8 19.2 11.1 61 4.2 CALM 0 0 0 0 1024.0 1023.8 0.0
26/07:30pm 19.3 18.3 10.3 56 4.9 SW 6 7 3 4 1023.9 1023.7 0.0
26/07:00pm 19.3 19.5 10.6 57 4.7 CALM 0 7 0 4 1023.7 1023.5 0.0
26/06:30pm 20.1 20.0 9.4 50 5.7 CALM 0 0 0 0 1023.5 1023.3 0.0
26/06:00pm 20.4 19.1 9.3 49 5.9 NW 6 7 3 4 1023.3 1023.1 0.0
26/05:30pm 20.7 19.2 9.0 47 6.2 WNW 7 9 4 5 1023.3 1023.1 0.0
26/05:00pm 21.3 19.7 8.6 44 6.7 NW 7 9 4 5 1023.2 1023.0 0.0
26/04:30pm 21.6 19.5 8.1 42 7.1 NW 9 11 5 6 1023.0 1022.9 0.0
26/04:00pm 22.0 19.8 7.8 40 7.4 NW 9 15 5 8 1022.9 1022.8 0.0
26/03:30pm 22.1 19.5 7.9 40 7.5 N 11 15 6 8 1022.9 1022.8 0.0
26/03:00pm 21.9 19.7 7.7 40 7.4 NNW 9 13 5 7 1023.4 1023.2 0.0
26/02:30pm 22.2 19.9 7.6 39 7.6 NNW 9 13 5 7 1023.5 1023.3 0.0
26/02:00pm 22.1 19.1 7.9 40 7.4 NNW 13 17 7 9 1024.0 1023.8 0.0
26/01:30pm 22.1 20.0 8.2 41 7.4 N 9 13 5 7 1024.3 1024.1 0.0
26/01:00pm 21.8 18.9 8.0 41 7.2 N 13 19 7 10 1024.5 1024.3 0.0
26/12:30pm 21.6 18.6 7.8 41 7.2 N 13 17 7 9 1025.3 1025.1 0.0
26/12:00pm 21.5 19.2 7.3 40 7.3 N 9 15 5 8 1025.7 1025.5 0.0
26/11:30am 21.1 18.6 8.4 44 6.7 NNE 11 17 6 9 1026.1 1025.9 0.0
26/11:00am 19.6 18.3 10.0 54 5.1 ENE 7 11 4 6 1026.6 1026.5 0.0
26/10:30am 18.0 16.2 9.6 58 4.5 ENE 9 11 5 6 1026.8 1026.7 0.0
26/10:00am 17.9 16.1 9.5 58 4.4 ENE 9 11 5 6 1026.9 1026.8 0.0
26/09:30am 17.3 15.8 9.2 59 4.2 E 7 9 4 5 1027.0 1026.9 0.0
26/09:00am 15.9 14.4 9.1 64 3.5 ESE 7 9 4 5 1026.8 1026.7 0.0
26/08:30am 15.4 13.9 9.1 66 3.3 E 7 9 4 5 1026.8 1026.7 0.0
26/08:00am 14.9 12.9 8.6 66 3.2 E 9 11 5 6 1026.4 1026.2 0.0
26/07:30am 14.9 13.2 8.2 64 3.4 ENE 7 9 4 5 1026.4 1026.2 0.0
26/07:00am 15.1 14.3 8.3 64 3.4 SW 2 7 1 4 1026.4 1026.2 0.0
26/06:30am 15.9 13.8 8.2 60 3.9 N 9 15 5 8 1026.1 1025.9 0.0
26/06:00am 16.5 13.6 8.0 57 4.3 NNE 13 19 7 10 1025.6 1025.4 0.0
26/05:30am 16.7 13.0 8.1 57 4.4 NE 17 24 9 13 1025.1 1024.9 0.0
26/05:00am 16.0 13.2 8.7 62 3.7 NNE 13 19 7 10 1025.3 1025.1 0.0
26/04:30am 13.7 11.7 8.7 72 2.5 ENE 9 11 5 6 1025.3 1025.1 0.0
26/04:00am 13.5 10.8 9.0 74 2.3 E 13 13 7 7 1025.4 1025.2 0.0
26/03:30am 12.9 10.5 8.8 76 2.1 E 11 13 6 7 1025.6 1025.4 0.0
26/03:00am 13.1 10.7 8.6 74 2.3 E 11 15 6 8 1025.8 1025.6 0.0
26/02:30am 13.5 10.8 8.8 73 2.4 ESE 13 15 7 8 1025.9 1025.7 0.0
26/02:00am 13.8 10.7 9.0 73 2.4 ESE 15 19 8 10 1026.0 1025.8 0.0
26/01:30am 13.3 10.7 9.2 76 2.1 ESE 13 15 7 8 1026.3 1026.1 0.0
26/01:00am 13.8 11.2 9.3 74 2.3 ESE 13 17 7 9 1026.4 1026.2 0.0
26/12:30am 14.4 11.4 9.2 71 2.7 ESE 15 19 8 10 1026.6 1026.5 0.0
26/12:00am 14.8 11.8 9.2 69 2.9 ESE 15 17 8 9 1026.9 1026.8 0.0
 
Date/Time
EST
Temp
°C
App
Temp
°C
Dew
Point
Rel
Hum
%
Delta-T
°C
Wind Press
QNH
hPa
Press
MSL
hPa
Rain
since 9 am
mm
Dir
 
Spd
km/h
Gust
km/h
Spd
kts
Gust
kts
25/11:30pm 15.0 12.0 9.1 68 3.0 ESE 15 17 8 9 1027.0 1026.9 0.0
25/11:00pm 15.3 12.7 9.2 67 3.1 ESE 13 15 7 8 1027.3 1027.2 0.0
25/10:30pm 15.0 12.3 9.1 68 3.0 ESE 13 17 7 9 1027.3 1027.2 0.0
25/10:00pm 14.8 12.4 8.7 67 3.1 ESE 11 13 6 7 1027.7 1027.6 0.0
25/09:30pm 15.5 13.3 9.2 66 3.3 ESE 11 13 6 7 1027.6 1027.5 0.0
25/09:00pm 15.7 13.8 8.9 64 3.5 E 9 11 5 6 1027.7 1027.6 0.0
25/08:30pm 16.6 14.6 8.6 59 4.1 ESE 9 11 5 6 1027.7 1027.6 0.0
25/08:00pm 17.9 15.0 8.2 53 5.0 SE 13 15 7 8 1027.2 1027.1 0.0
25/07:30pm 18.0 16.4 8.6 54 4.9 SE 7 9 4 5 1027.4 1027.3 0.0
25/07:00pm 17.9 15.5 8.5 54 4.8 ESE 11 13 6 7 1026.5 1026.4 0.0
25/06:30pm 17.8 15.4 8.6 55 4.8 ESE 11 13 6 7 1026.0 1025.8 0.0
25/06:00pm 18.2 16.2 8.5 53 5.0 ESE 9 11 5 6 1026.2 1026.0 0.0
25/05:30pm 19.0 16.9 8.4 50 5.5 ENE 9 11 5 6 1026.0 1025.8 0.0
25/05:00pm 19.9 17.8 8.3 47 6.0 ENE 9 11 5 6 1025.7 1025.5 0.0
25/04:30pm 20.4 17.8 7.7 44 6.6 E 11 15 6 8 1025.9 1025.7 0.0
25/04:00pm 20.8 17.7 7.4 42 6.9 ENE 13 17 7 9 1025.9 1025.7 0.0
25/03:30pm 21.2 18.6 7.8 42 7.0 ENE 11 15 6 8 1025.9 1025.7 0.0
25/03:00pm 21.3 18.2 7.2 40 7.3 ENE 13 20 7 11 1026.2 1026.0 0.0
25/02:30pm 21.2 18.2 7.8 42 7.0 E 13 19 7 10 1026.0 1025.8 0.0
25/02:00pm 21.1 17.6 7.3 41 7.1 ENE 15 22 8 12 1026.5 1026.4 0.0
25/01:30pm 20.9 17.2 7.9 43 6.8 ENE 17 22 9 12 1026.4 1026.2 0.0
25/01:00pm 20.7 17.3 7.7 43 6.7 ENE 15 24 8 13 1026.8 1026.7 0.0
25/12:30pm 19.9 16.8 7.3 44 6.5 E 13 19 7 10 1027.7 1027.6 0.0
25/12:00pm 19.9 16.8 7.3 44 6.4 ENE 13 17 7 9 1028.2 1028.1 0.0
25/11:30am 19.1 16.2 8.1 49 5.7 ENE 13 17 7 9 1029.1 1029.0 0.0
25/11:00am 18.8 15.8 7.9 49 5.6 ENE 13 17 7 9 1029.3 1029.2 0.0
25/10:30am 17.4 14.6 8.5 56 4.6 E 13 17 7 9 1029.9 1029.7 0.0
25/10:00am 16.6 13.8 8.6 59 4.1 ENE 13 17 7 9 1030.0 1029.8 0.0

Other Formats:

Comma delimited format used in spreadsheet applications
http://www.bom.gov.au/fwo/IDN60801/IDN60801.95699.axf

JavaScript Object Notation format (JSON) in row-major order
http://www.bom.gov.au/fwo/IDN60801/IDN60801.95699.json